createdAt,value
2022-08-14T00:01:59.447Z,15.41
2022-08-14T00:04:35.121Z,15.33
2022-08-14T00:07:10.760Z,15.36
2022-08-14T00:09:39.590Z,15.41
2022-08-14T00:12:24.765Z,15.42
2022-08-14T00:15:01.437Z,15.42
2022-08-14T00:17:31.292Z,15.35
2022-08-14T00:20:09.318Z,15.23
2022-08-14T00:22:56.207Z,15.21
2022-08-14T00:25:25.142Z,15.23
2022-08-14T00:28:10.867Z,15.26
2022-08-14T00:30:45.186Z,15.24
2022-08-14T00:33:16.507Z,15.16
2022-08-14T00:36:39.519Z,15.13
2022-08-14T00:38:35.265Z,15.04
2022-08-14T00:41:04.899Z,15.02
2022-08-14T00:43:32.810Z,14.97
2022-08-14T00:46:05.231Z,14.75
2022-08-14T00:48:38.258Z,14.66
2022-08-14T00:51:11.650Z,14.63
2022-08-14T00:53:43.112Z,14.63
2022-08-14T00:56:17.881Z,14.60
2022-08-14T00:58:48.370Z,14.57
2022-08-14T01:01:20.753Z,14.60
2022-08-14T01:03:52.971Z,14.61
2022-08-14T01:06:23.514Z,14.56
2022-08-14T01:08:59.750Z,14.53
2022-08-14T01:11:35.390Z,14.51
2022-08-14T01:14:25.353Z,14.36
2022-08-14T01:16:55.541Z,14.25
2022-08-14T01:19:41.913Z,14.21
2022-08-14T01:22:13.214Z,14.21
2022-08-14T01:24:46.885Z,14.23
2022-08-14T01:27:18.123Z,14.20
2022-08-14T01:30:03.406Z,14.04
2022-08-14T01:32:35.592Z,13.84
2022-08-14T01:35:20.774Z,13.88
2022-08-14T01:38:00.612Z,13.94
2022-08-14T01:40:36.323Z,13.93
2022-08-14T01:43:13.860Z,13.92
2022-08-14T01:45:41.635Z,13.97
2022-08-14T01:48:13.524Z,14.03
2022-08-14T01:50:42.622Z,14.05
2022-08-14T01:53:13.819Z,14.06
2022-08-14T01:55:42.303Z,14.05
2022-08-14T01:58:18.916Z,13.91
2022-08-14T02:00:54.378Z,13.92
2022-08-14T02:03:24.183Z,13.87
2022-08-14T02:05:59.854Z,13.86
2022-08-14T02:08:34.715Z,13.81
2022-08-14T02:11:18.801Z,13.85
2022-08-14T02:13:50.792Z,13.80
2022-08-14T02:16:22.283Z,13.71
2022-08-14T02:18:50.864Z,13.55
2022-08-14T02:21:23.297Z,13.48
2022-08-14T02:23:54.370Z,13.52
2022-08-14T02:26:29.358Z,13.51
2022-08-14T02:29:03.553Z,13.43
2022-08-14T02:31:42.379Z,13.34
2022-08-14T02:34:22.369Z,13.40
2022-08-14T02:37:03.574Z,13.42
2022-08-14T02:39:37.570Z,13.44
2022-08-14T02:42:06.636Z,13.42
2022-08-14T02:44:41.931Z,13.38
2022-08-14T02:47:15.198Z,13.34
2022-08-14T02:49:50.665Z,13.31
2022-08-14T02:52:55.792Z,13.36
2022-08-14T02:55:11.908Z,13.36
2022-08-14T02:57:45.040Z,13.30
2022-08-14T03:00:21.226Z,13.26
2022-08-14T03:02:59.154Z,13.25
2022-08-14T03:05:32.952Z,13.25
2022-08-14T03:08:08.073Z,13.13
2022-08-14T03:10:42.067Z,13.08
2022-08-14T03:13:20.861Z,13.11
2022-08-14T03:15:55.707Z,13.15
2022-08-14T03:18:31.828Z,13.15
2022-08-14T03:21:02.636Z,13.12
2022-08-14T03:23:33.969Z,13.11
2022-08-14T03:26:08.691Z,13.07
2022-08-14T03:28:42.343Z,13.06
2022-08-14T03:31:13.169Z,13.06
2022-08-14T03:33:41.817Z,13.09
2022-08-14T03:37:50.798Z,13.08
2022-08-14T03:39:14.271Z,13.10
2022-08-14T03:41:51.340Z,13.08
2022-08-14T03:45:27.808Z,13.02
2022-08-14T03:47:08.229Z,13.03
2022-08-14T03:49:40.425Z,13.02
2022-08-14T03:52:17.989Z,13.06
2022-08-14T03:54:59.166Z,13.09
2022-08-14T03:57:32.890Z,13.12
2022-08-14T04:00:27.610Z,13.14
2022-08-14T04:02:58.771Z,12.93
2022-08-14T04:05:26.861Z,12.80
2022-08-14T04:08:08.345Z,12.76
2022-08-14T04:10:42.247Z,12.77
2022-08-14T04:13:11.414Z,12.70
2022-08-14T04:15:56.671Z,12.68
2022-08-14T04:18:26.994Z,12.64
2022-08-14T04:20:55.801Z,12.52
2022-08-14T04:23:32.639Z,12.45
2022-08-14T04:26:04.786Z,12.39
2022-08-14T04:29:02.197Z,12.41
2022-08-14T04:33:01.834Z,12.38
2022-08-14T04:34:20.618Z,12.36
2022-08-14T04:37:09.116Z,12.40
2022-08-14T04:39:56.747Z,12.46
2022-08-14T04:42:47.345Z,12.49
2022-08-14T04:45:21.474Z,12.48
2022-08-14T04:48:10.087Z,12.50
2022-08-14T04:50:45.043Z,12.44
2022-08-14T04:53:15.643Z,12.41
2022-08-14T04:55:51.424Z,12.41
2022-08-14T04:58:21.626Z,12.48
2022-08-14T05:00:52.290Z,12.58
2022-08-14T05:03:20.979Z,12.63
2022-08-14T05:05:50.429Z,12.66
2022-08-14T05:08:32.240Z,12.65
2022-08-14T05:11:13.328Z,12.73
2022-08-14T05:16:31.121Z,12.97
2022-08-14T05:19:25.084Z,13.07
2022-08-14T05:21:56.619Z,13.19
2022-08-14T05:24:28.877Z,13.29
2022-08-14T05:26:56.793Z,13.38
2022-08-14T05:29:24.468Z,13.46
2022-08-14T05:31:57.321Z,13.57
2022-08-14T05:34:32.072Z,13.69
2022-08-14T05:37:02.299Z,13.78
2022-08-14T05:39:31.708Z,13.89
2022-08-14T05:42:00.585Z,13.98
2022-08-14T05:44:30.832Z,14.07
2022-08-14T05:47:00.304Z,14.20
2022-08-14T05:49:33.348Z,14.31
2022-08-14T05:52:02.172Z,14.39
2022-08-14T05:54:35.311Z,14.51
2022-08-14T05:57:04.444Z,14.64
2022-08-14T05:59:38.797Z,14.76
2022-08-14T06:02:10.183Z,14.91
2022-08-14T06:04:38.431Z,15.04
2022-08-14T06:07:06.438Z,15.17
2022-08-14T06:09:35.861Z,15.32
2022-08-14T06:12:09.157Z,15.46
2022-08-14T06:14:36.819Z,15.61
2022-08-14T06:17:04.869Z,15.75
2022-08-14T06:19:34.029Z,15.93
2022-08-14T06:22:01.773Z,16.06
2022-08-14T06:24:34.870Z,16.18
2022-08-14T06:27:04.382Z,16.36
2022-08-14T06:29:34.664Z,16.57
2022-08-14T06:32:36.585Z,16.79
2022-08-14T06:35:02.140Z,16.89
2022-08-14T06:37:40.222Z,17.04
2022-08-14T06:40:25.758Z,17.25
2022-08-14T06:42:56.968Z,17.50
2022-08-14T06:45:28.541Z,17.76
2022-08-14T06:47:58.902Z,17.98
2022-08-14T06:50:30.827Z,18.17
2022-08-14T06:53:01.254Z,18.36
2022-08-14T06:55:29.492Z,18.56
2022-08-14T06:57:58.115Z,18.79
2022-08-14T07:00:31.225Z,19.08
2022-08-14T07:03:17.293Z,19.25
2022-08-14T07:05:57.627Z,19.50
2022-08-14T07:08:29.452Z,19.78
2022-08-14T07:11:00.771Z,20.05
2022-08-14T07:13:30.482Z,20.33
2022-08-14T07:16:00.512Z,20.55
2022-08-14T07:18:34.723Z,20.75
2022-08-14T07:21:05.665Z,20.97
2022-08-14T07:23:35.147Z,21.23
2022-08-14T07:26:10.236Z,21.50
2022-08-14T07:28:43.250Z,21.54
2022-08-14T07:31:12.831Z,21.63
2022-08-14T07:33:43.551Z,21.89
2022-08-14T07:36:26.566Z,22.04
2022-08-14T07:38:57.800Z,22.32
2022-08-14T07:41:34.041Z,22.53
2022-08-14T07:44:29.636Z,22.77
2022-08-14T07:46:51.785Z,22.82
2022-08-14T07:49:19.853Z,22.90
2022-08-14T07:51:49.600Z,23.15
2022-08-14T07:54:23.160Z,23.47
2022-08-14T07:56:57.895Z,23.76
2022-08-14T07:59:42.232Z,24.10
2022-08-14T08:02:17.060Z,24.44
2022-08-14T08:04:49.601Z,24.69
2022-08-14T08:07:18.781Z,24.91
2022-08-14T08:09:53.221Z,24.96
2022-08-14T08:12:26.256Z,25.25
2022-08-14T08:15:05.928Z,25.50
2022-08-14T08:17:38.786Z,25.76
2022-08-14T08:20:09.300Z,25.74
2022-08-14T08:22:48.093Z,25.89
2022-08-14T08:25:18.895Z,26.24
2022-08-14T08:27:56.668Z,26.57
2022-08-14T08:30:24.893Z,26.64
2022-08-14T08:32:53.980Z,26.67
2022-08-14T08:35:23.497Z,27.02
2022-08-14T08:38:01.424Z,27.29
2022-08-14T08:40:35.705Z,27.46
2022-08-14T08:43:18.543Z,27.32
2022-08-14T08:45:55.310Z,27.54
2022-08-14T08:48:31.816Z,27.52
2022-08-14T08:51:06.194Z,27.15
2022-08-14T08:53:36.448Z,27.34
2022-08-14T08:56:05.103Z,27.19
2022-08-14T08:58:33.917Z,27.36
2022-08-14T09:01:01.788Z,27.55
2022-08-14T09:03:32.255Z,27.58
2022-08-14T09:06:02.741Z,27.85
2022-08-14T09:08:32.987Z,28.19
2022-08-14T09:11:19.110Z,28.28
2022-08-14T09:13:50.522Z,28.23
2022-08-14T09:16:21.147Z,28.34
2022-08-14T09:18:49.939Z,28.27
2022-08-14T09:21:24.099Z,28.50
2022-08-14T09:24:29.441Z,28.56
2022-08-14T09:26:49.584Z,28.44
2022-08-14T09:29:20.022Z,28.28
2022-08-14T09:31:57.048Z,28.49
2022-08-14T09:34:39.678Z,28.78
2022-08-14T09:37:42.164Z,28.94
2022-08-14T09:40:21.215Z,28.91
2022-08-14T09:42:59.220Z,29.01
2022-08-14T09:45:39.971Z,29.04
2022-08-14T09:48:29.915Z,28.99
2022-08-14T09:54:17.847Z,29.44
2022-08-14T09:56:30.734Z,29.70
2022-08-14T09:59:15.250Z,30.07
2022-08-14T10:01:46.289Z,30.10
2022-08-14T10:04:33.781Z,30.09
2022-08-14T10:07:03.828Z,30.12
2022-08-14T10:09:33.518Z,29.92
2022-08-14T10:12:04.560Z,29.93
2022-08-14T10:14:36.902Z,29.86
2022-08-14T10:17:08.440Z,29.33
2022-08-14T10:19:37.268Z,29.85
2022-08-14T10:23:15.405Z,30.23
2022-08-14T10:25:00.004Z,30.42
2022-08-14T10:27:28.743Z,29.77
2022-08-14T10:30:00.711Z,30.15
2022-08-14T10:32:41.822Z,30.39
2022-08-14T10:35:17.255Z,30.42
2022-08-14T10:37:48.572Z,30.55
2022-08-14T10:40:38.468Z,30.82
2022-08-14T10:43:17.969Z,30.81
2022-08-14T10:46:59.058Z,30.78
2022-08-14T10:48:57.573Z,30.97
2022-08-14T10:51:26.414Z,30.76
2022-08-14T10:53:56.246Z,31.07
2022-08-14T10:56:34.937Z,31.52
2022-08-14T10:59:03.790Z,31.88
2022-08-14T11:01:40.999Z,31.74
2022-08-14T11:04:30.108Z,31.25
2022-08-14T11:06:58.362Z,31.77
2022-08-14T11:09:31.449Z,31.70
2022-08-14T11:12:35.049Z,31.83
2022-08-14T11:14:59.116Z,31.90
2022-08-14T11:17:32.671Z,32.11
2022-08-14T11:20:01.903Z,32.33
2022-08-14T11:22:55.537Z,31.95
2022-08-14T11:25:20.567Z,32.28
2022-08-14T11:27:49.521Z,32.65
2022-08-14T11:30:50.161Z,32.68
2022-08-14T11:33:09.231Z,32.78
2022-08-14T11:35:47.742Z,33.16
2022-08-14T11:38:17.968Z,32.45
2022-08-14T11:40:47.413Z,32.25
2022-08-14T11:43:16.423Z,32.00
2022-08-14T11:45:48.678Z,32.13
2022-08-14T11:49:02.526Z,32.42
2022-08-14T11:51:16.845Z,32.39
2022-08-14T11:53:51.810Z,32.54
2022-08-14T11:56:25.254Z,32.42
2022-08-14T11:58:54.714Z,32.41
2022-08-14T12:01:31.201Z,32.58
2022-08-14T12:04:32.394Z,33.05
2022-08-14T12:07:01.246Z,32.37
2022-08-14T12:09:30.694Z,32.31
2022-08-14T12:11:58.837Z,32.49
2022-08-14T12:14:30.690Z,32.66
2022-08-14T12:17:12.767Z,33.01
2022-08-14T12:19:51.518Z,32.83
2022-08-14T12:22:34.347Z,32.81
2022-08-14T12:25:08.505Z,33.24
2022-08-14T12:27:41.713Z,33.35
2022-08-14T12:30:21.125Z,33.63
2022-08-14T12:32:49.085Z,33.49
2022-08-14T12:35:19.975Z,33.41
2022-08-14T12:37:50.740Z,33.52
2022-08-14T12:40:24.822Z,33.50
2022-08-14T12:42:56.790Z,33.29
2022-08-14T12:45:34.382Z,33.33
2022-08-14T12:48:21.481Z,33.57
2022-08-14T12:50:52.523Z,33.72
2022-08-14T12:53:20.846Z,33.72
2022-08-14T12:56:22.211Z,34.01
2022-08-14T12:58:52.551Z,34.24
2022-08-14T13:01:22.182Z,34.40
2022-08-14T13:03:51.834Z,34.26
2022-08-14T13:06:24.505Z,34.60
2022-08-14T13:11:40.850Z,35.02
2022-08-14T13:14:09.598Z,34.39
2022-08-14T13:16:45.662Z,34.48
2022-08-14T13:19:20.089Z,34.78
2022-08-14T13:21:58.689Z,34.88
2022-08-14T13:24:33.918Z,34.99
2022-08-14T13:27:04.968Z,34.88
2022-08-14T13:29:40.712Z,35.01
2022-08-14T13:32:11.814Z,34.90
2022-08-14T13:34:40.623Z,34.95
2022-08-14T13:37:10.201Z,34.41
2022-08-14T13:39:47.697Z,33.87
2022-08-14T13:42:30.488Z,34.03
2022-08-14T13:45:00.475Z,33.91
2022-08-14T13:47:30.869Z,32.98
2022-08-14T13:50:02.930Z,33.02
2022-08-14T13:52:52.683Z,33.43
2022-08-14T13:55:22.849Z,33.56
2022-08-14T13:58:03.192Z,33.74
2022-08-14T14:00:35.653Z,32.98
2022-08-14T14:03:19.740Z,32.04
2022-08-14T14:05:53.095Z,32.56
2022-08-14T14:08:43.084Z,32.41
2022-08-14T14:11:13.248Z,32.08
2022-08-14T14:13:45.329Z,31.87
2022-08-14T14:16:15.107Z,31.52
2022-08-14T14:18:46.137Z,31.85
2022-08-14T14:21:14.312Z,32.06
2022-08-14T14:23:44.459Z,31.64
2022-08-14T14:26:16.969Z,31.50
2022-08-14T14:28:51.559Z,31.76
2022-08-14T14:31:22.056Z,32.05
2022-08-14T14:34:00.315Z,32.22
2022-08-14T14:36:30.430Z,32.09
2022-08-14T14:39:01.160Z,31.80
2022-08-14T14:41:37.712Z,31.63
2022-08-14T14:44:09.110Z,31.00
2022-08-14T14:46:38.367Z,30.68
2022-08-14T14:49:14.678Z,30.67
2022-08-14T14:51:46.791Z,30.87
2022-08-14T14:54:32.047Z,30.90
2022-08-14T14:57:09.245Z,30.95
2022-08-14T14:59:37.506Z,31.19
2022-08-14T15:02:07.736Z,31.38
2022-08-14T15:04:37.821Z,31.55
2022-08-14T15:07:06.357Z,31.75
2022-08-14T15:09:35.852Z,31.80
2022-08-14T15:12:16.194Z,31.62
2022-08-14T15:14:56.585Z,31.03
2022-08-14T15:17:28.474Z,30.92
2022-08-14T15:19:57.327Z,30.72
2022-08-14T15:22:25.448Z,30.88
2022-08-14T15:24:54.613Z,30.92
2022-08-14T15:27:26.637Z,30.87
2022-08-14T15:29:55.082Z,30.77
2022-08-14T15:32:23.593Z,30.74
2022-08-14T15:34:52.834Z,30.48
2022-08-14T15:37:22.892Z,30.57
2022-08-14T15:39:52.600Z,30.45
2022-08-14T15:42:23.091Z,30.45
2022-08-14T15:44:57.908Z,30.15
2022-08-14T15:47:30.819Z,30.12
2022-08-14T15:50:00.217Z,29.97
2022-08-14T15:52:32.420Z,29.59
2022-08-14T15:55:03.570Z,29.74
2022-08-14T15:57:33.502Z,29.90
2022-08-14T16:00:40.656Z,29.79
2022-08-14T16:03:12.735Z,29.73
2022-08-14T16:05:43.616Z,29.45
2022-08-14T16:08:27.182Z,29.32
2022-08-14T16:10:57.682Z,29.46
2022-08-14T16:13:40.564Z,29.33
2022-08-14T16:16:34.493Z,29.31
2022-08-14T16:22:01.447Z,29.26
2022-08-14T16:25:00.310Z,29.24
2022-08-14T16:27:38.903Z,29.16
2022-08-14T16:30:24.947Z,29.12
2022-08-14T16:32:56.627Z,29.26
2022-08-14T16:35:42.942Z,29.27
2022-08-14T16:38:35.747Z,29.24
2022-08-14T16:40:23.790Z,29.27
2022-08-14T16:41:23.348Z,29.17
2022-08-14T16:43:54.260Z,29.24
2022-08-14T16:46:32.678Z,29.26
2022-08-14T16:49:01.040Z,29.15
2022-08-14T16:51:30.937Z,28.98
2022-08-14T16:54:04.272Z,28.94
2022-08-14T16:56:48.847Z,28.81
2022-08-14T16:59:18.296Z,28.79
2022-08-14T17:01:56.358Z,28.81
2022-08-14T17:04:29.081Z,28.73
2022-08-14T17:06:57.834Z,28.69
2022-08-14T17:09:43.398Z,28.66
2022-08-14T17:12:28.730Z,28.65
2022-08-14T17:15:09.833Z,28.53
2022-08-14T17:17:58.299Z,28.36
2022-08-14T17:20:39.581Z,28.30
2022-08-14T17:23:15.932Z,28.21
2022-08-14T17:25:50.675Z,28.12
2022-08-14T17:28:51.256Z,28.05
2022-08-14T17:31:08.441Z,27.92
2022-08-14T17:33:40.777Z,27.86
2022-08-14T17:36:21.512Z,27.70
2022-08-14T17:38:59.900Z,27.64
2022-08-14T17:41:35.978Z,27.56
2022-08-14T17:44:12.143Z,27.39
2022-08-14T17:46:43.540Z,27.28
2022-08-14T17:49:18.093Z,27.21
2022-08-14T17:52:07.822Z,27.17
2022-08-14T17:54:47.468Z,27.06
2022-08-14T17:57:23.155Z,26.86
2022-08-14T17:59:52.859Z,26.82
2022-08-14T18:02:23.264Z,26.77
2022-08-14T18:05:03.205Z,26.58
2022-08-14T18:08:33.227Z,26.55
2022-08-14T18:10:51.793Z,26.38
2022-08-14T18:13:10.731Z,26.16
2022-08-14T18:15:41.378Z,26.01
2022-08-14T18:18:11.927Z,25.95
2022-08-14T18:21:24.128Z,25.82
2022-08-14T18:23:29.475Z,25.72
2022-08-14T18:25:59.985Z,25.65
2022-08-14T18:28:51.897Z,25.63
2022-08-14T18:31:42.326Z,25.62
2022-08-14T18:34:31.833Z,25.59
2022-08-14T18:37:17.033Z,25.56
2022-08-14T18:40:02.001Z,25.55
2022-08-14T18:42:44.680Z,25.46
2022-08-14T18:45:15.885Z,25.37
2022-08-14T18:50:52.181Z,25.25
2022-08-14T18:53:24.554Z,25.22
2022-08-14T18:55:54.879Z,25.12
2022-08-14T18:58:34.054Z,25.00
2022-08-14T19:01:04.660Z,24.74
2022-08-14T19:03:57.600Z,24.50
2022-08-14T19:06:42.849Z,24.38
2022-08-14T19:09:43.970Z,24.27
2022-08-14T19:12:57.704Z,24.20
2022-08-14T19:15:28.367Z,24.07
2022-08-14T19:18:14.763Z,23.98
2022-08-14T19:20:52.814Z,23.94
2022-08-14T19:23:23.843Z,23.90
2022-08-14T19:26:34.181Z,23.83
2022-08-14T19:29:37.581Z,23.73
2022-08-14T19:32:36.445Z,23.59
2022-08-14T19:35:14.813Z,23.55
2022-08-14T19:37:52.086Z,23.53
2022-08-14T19:40:33.255Z,23.47
2022-08-14T19:43:03.265Z,23.39
2022-08-14T19:45:36.785Z,23.33
2022-08-14T19:48:12.103Z,23.26
2022-08-14T19:50:41.022Z,23.19
2022-08-14T19:53:17.412Z,23.19
2022-08-14T19:55:57.606Z,23.18
2022-08-14T19:58:38.058Z,23.15
2022-08-14T20:01:36.986Z,23.09
2022-08-14T20:04:08.342Z,22.98
2022-08-14T20:06:57.088Z,22.92
2022-08-14T20:11:03.748Z,22.83
2022-08-14T20:12:34.600Z,22.82
2022-08-14T20:15:08.723Z,22.74
2022-08-14T20:17:40.497Z,22.65
2022-08-14T20:20:20.909Z,22.67
2022-08-14T20:22:58.814Z,22.73
2022-08-14T20:25:36.881Z,22.69
2022-08-14T20:28:30.256Z,22.63
2022-08-14T20:31:14.065Z,22.55
2022-08-14T20:34:03.366Z,22.45
2022-08-14T20:36:31.637Z,22.45
2022-08-14T20:39:00.315Z,22.43
2022-08-14T20:41:27.997Z,22.37
2022-08-14T20:44:15.320Z,22.39
2022-08-14T20:46:49.996Z,22.36
2022-08-14T20:49:29.280Z,22.36
2022-08-14T20:52:00.064Z,22.31
2022-08-14T20:54:36.827Z,22.27
2022-08-14T20:57:17.898Z,22.23
2022-08-14T20:59:50.321Z,22.23
2022-08-14T21:02:29.518Z,22.16
2022-08-14T21:05:00.626Z,22.13
2022-08-14T21:07:36.637Z,22.04
2022-08-14T21:10:33.240Z,21.94
2022-08-14T21:14:18.731Z,21.84
2022-08-14T21:15:44.322Z,21.81
2022-08-14T21:18:28.902Z,21.79
2022-08-14T21:20:58.506Z,21.73
2022-08-14T21:23:32.834Z,21.72
2022-08-14T21:26:03.698Z,21.72
2022-08-14T21:31:04.365Z,21.68
2022-08-14T21:33:35.466Z,21.65
2022-08-14T21:36:07.746Z,21.57
2022-08-14T21:38:38.045Z,21.50
2022-08-14T21:41:42.385Z,21.45
2022-08-14T21:44:18.260Z,21.40
2022-08-14T21:46:49.908Z,21.40
2022-08-14T21:49:21.033Z,21.43
2022-08-14T21:51:57.178Z,21.49
2022-08-14T21:54:32.554Z,21.48
2022-08-14T21:58:04.004Z,21.49
2022-08-14T22:00:34.952Z,21.46
2022-08-14T22:03:05.058Z,21.44
2022-08-14T22:05:34.274Z,21.42
2022-08-14T22:08:06.579Z,21.38
2022-08-14T22:10:35.719Z,21.32
2022-08-14T22:13:03.505Z,21.31
2022-08-14T22:15:33.326Z,21.30
2022-08-14T22:18:04.126Z,21.23
2022-08-14T22:20:34.031Z,21.21
2022-08-14T22:23:04.321Z,21.17
2022-08-14T22:25:33.939Z,21.12
2022-08-14T22:28:03.002Z,21.14
2022-08-14T22:30:31.402Z,21.17
2022-08-14T22:33:00.243Z,21.06
2022-08-14T22:35:29.207Z,21.08
2022-08-14T22:38:34.694Z,21.08
2022-08-14T22:41:07.628Z,21.07
2022-08-14T22:43:35.967Z,21.00
2022-08-14T22:46:06.168Z,21.00
2022-08-14T22:48:43.348Z,21.04
2022-08-14T22:51:13.610Z,21.09
2022-08-14T22:53:42.941Z,21.12
2022-08-14T22:56:20.142Z,21.10
2022-08-14T22:58:53.580Z,21.10
2022-08-14T23:01:24.920Z,21.08
2022-08-14T23:04:12.560Z,21.00
2022-08-14T23:07:04.815Z,20.99
2022-08-14T23:09:38.091Z,20.99
2022-08-14T23:12:28.020Z,20.96
2022-08-14T23:14:55.682Z,20.96
2022-08-14T23:17:23.365Z,20.90
2022-08-14T23:19:56.686Z,20.90
2022-08-14T23:22:26.222Z,20.90
2022-08-14T23:24:57.780Z,20.90
2022-08-14T23:27:32.108Z,20.91
2022-08-14T23:30:31.417Z,20.90
2022-08-14T23:33:03.195Z,20.83
2022-08-14T23:35:33.316Z,20.78
2022-08-14T23:38:02.865Z,20.77
2022-08-14T23:40:32.169Z,20.71
2022-08-14T23:43:04.658Z,20.71
2022-08-14T23:45:36.725Z,20.60
2022-08-14T23:48:10.057Z,20.60
2022-08-14T23:50:41.426Z,20.60
2022-08-14T23:53:28.518Z,20.64
2022-08-14T23:56:08.305Z,20.65
2022-08-14T23:58:37.078Z,20.65
